Time;durP1;ratioP1;P1;durP2;ratioP2;P2;SDS_P1;SDS_P2;PMS_P1;PMS_P2;Temp;Humidity;BMP_temperature;BMP_pressure;BME280_temperature;BME280_humidity;BME280_pressure;Samples;Min_cycle;Max_cycle;Signal;HPM_P1;HPM_P2
2024/04/18 00:05:33;;;;;;;4.05;1.20;;;5.20;99.90;;;;;;22189901;26;20546;-77
2024/04/18 00:15:34;;;;;;;2.65;1.35;;;5.20;99.90;;;;;;22201303;26;20020;-77
2024/04/18 00:25:35;;;;;;;3.83;1.88;;;5.00;99.90;;;;;;22199024;26;20355;-77
2024/04/18 00:35:36;;;;;;;3.63;1.27;;;4.80;99.90;;;;;;22166138;26;20004;-77
2024/04/18 00:45:37;;;;;;;2.78;1.55;;;4.80;99.90;;;;;;22199340;26;20355;-77
2024/04/18 00:55:40;;;;;;;2.92;1.85;;;4.70;99.90;;;;;;22162396;26;20334;-77
2024/04/18 01:05:42;;;;;;;5.32;1.90;;;4.70;99.90;;;;;;22141300;26;20027;-77
2024/04/18 01:15:43;;;;;;;3.05;1.70;;;4.70;99.90;;;;;;22167424;26;20453;-77
2024/04/18 01:25:44;;;;;;;4.60;1.70;;;4.60;99.90;;;;;;22162959;26;20004;-77
2024/04/18 01:35:45;;;;;;;3.22;1.85;;;4.50;99.90;;;;;;22154182;26;20063;-77
2024/04/18 01:45:46;;;;;;;3.50;1.67;;;4.30;99.90;;;;;;22189825;26;20533;-77
2024/04/18 01:55:47;;;;;;;3.53;2.20;;;4.20;99.90;;;;;;22158483;26;20035;-77
2024/04/18 02:05:48;;;;;;;3.95;2.35;;;4.10;99.90;;;;;;22174006;26;20055;-77
2024/04/18 02:15:49;;;;;;;4.38;2.95;;;4.00;99.90;;;;;;22191068;26;20043;-79
2024/04/18 02:25:50;;;;;;;5.43;3.42;;;3.90;99.90;;;;;;22164374;26;20043;-79
2024/04/18 02:35:52;;;;;;;6.63;4.03;;;3.90;99.90;;;;;;22164620;26;20023;-78
2024/04/18 02:45:53;;;;;;;7.25;5.07;;;3.90;99.90;;;;;;22187140;26;20015;-78
2024/04/18 02:55:55;;;;;;;14.38;8.32;;;3.90;99.90;;;;;;22178451;26;19996;-78
2024/04/18 03:06:03;;;;;;;19.17;11.15;;;3.80;99.90;;;;;;22148875;26;20000;-78
2024/04/18 03:16:04;;;;;;;15.82;10.38;;;3.80;99.90;;;;;;22155756;26;20023;-78
2024/04/18 03:26:05;;;;;;;15.15;10.77;;;3.90;99.90;;;;;;22179860;26;20000;-78
2024/04/18 03:36:07;;;;;;;15.27;10.43;;;3.80;99.90;;;;;;22153977;26;19996;-78
2024/04/18 03:46:08;;;;;;;19.63;11.63;;;3.80;99.90;;;;;;22183973;26;20009;-78
2024/04/18 03:56:09;;;;;;;17.33;10.80;;;3.70;99.90;;;;;;22184503;26;21575;-78
2024/04/18 04:06:10;;;;;;;17.40;10.68;;;3.90;99.90;;;;;;22167940;26;20006;-78
2024/04/18 04:16:11;;;;;;;15.73;9.52;;;4.10;99.90;;;;;;22192709;26;19992;-78
2024/04/18 04:26:12;;;;;;;16.02;8.57;;;4.30;99.90;;;;;;22171364;26;23909;-77
2024/04/18 04:36:13;;;;;;;14.55;8.82;;;4.20;99.90;;;;;;22166915;26;20002;-78
2024/04/18 04:46:14;;;;;;;15.70;8.77;;;4.10;99.90;;;;;;22206168;26;20004;-80
2024/04/18 04:56:15;;;;;;;16.17;8.23;;;4.00;99.90;;;;;;22224233;26;20001;-77
2024/04/18 05:06:15;;;;;;;14.48;8.02;;;4.00;99.90;;;;;;22212976;26;20530;-76
2024/04/18 05:16:16;;;;;;;13.40;8.30;;;4.10;99.90;;;;;;22195380;26;19996;-78
2024/04/18 05:26:17;;;;;;;16.83;8.52;;;4.30;99.90;;;;;;22215006;26;20015;-76
2024/04/18 05:36:19;;;;;;;14.70;8.88;;;4.40;99.90;;;;;;22203947;26;20007;-78
2024/04/18 05:46:20;;;;;;;15.32;8.93;;;4.60;99.90;;;;;;22203012;26;19993;-79
2024/04/18 05:56:21;;;;;;;12.95;7.70;;;4.70;99.90;;;;;;22175598;26;20444;-78
2024/04/18 06:06:22;;;;;;;11.77;8.15;;;4.70;99.90;;;;;;22212039;26;20449;-77
2024/04/18 06:16:23;;;;;;;26.20;11.68;;;4.80;99.90;;;;;;22174889;26;19992;-74
2024/04/18 06:26:24;;;;;;;18.45;11.48;;;5.20;99.90;;;;;;22219329;26;20000;-74
2024/04/18 06:36:25;;;;;;;19.45;11.35;;;5.70;99.90;;;;;;22214832;26;20014;-76
2024/04/18 06:46:26;;;;;;;17.45;10.55;;;6.00;99.90;;;;;;22217504;26;20000;-74
2024/04/18 06:56:27;;;;;;;16.50;10.93;;;6.30;99.90;;;;;;22212225;26;20057;-75
2024/04/18 07:06:28;;;;;;;17.92;10.63;;;6.50;99.90;;;;;;22207893;26;20015;-74
2024/04/18 07:16:29;;;;;;;14.30;7.97;;;6.70;99.90;;;;;;22216686;26;19997;-75
2024/04/18 07:26:30;;;;;;;8.52;4.57;;;7.10;99.90;;;;;;22195553;26;20011;-74
2024/04/18 07:36:31;;;;;;;17.63;5.82;;;7.30;99.90;;;;;;22196985;26;20015;-76
2024/04/18 07:46:33;;;;;;;8.27;4.93;;;7.60;99.90;;;;;;22195266;26;20018;-75
2024/04/18 07:56:34;;;;;;;7.40;3.53;;;7.80;99.90;;;;;;22211710;26;20336;-75
2024/04/18 08:06:36;;;;;;;5.38;3.42;;;8.20;99.90;;;;;;22206437;26;20423;-75
2024/04/18 08:16:37;;;;;;;5.55;2.20;;;8.40;99.90;;;;;;22207799;26;20000;-77
2024/04/18 08:26:38;;;;;;;4.43;0.85;;;8.70;99.90;;;;;;22193248;26;20004;-81
2024/04/18 08:36:39;;;;;;;8.45;1.13;;;9.20;23.50;;;;;;22212999;26;19996;-81
2024/04/18 08:46:41;;;;;;;4.80;0.88;;;9.10;1.00;;;;;;22219877;26;20708;-82
2024/04/18 08:56:50;;;;;;;1.85;0.50;;;9.20;1.00;;;;;;22206777;26;20004;-81
2024/04/18 09:06:51;;;;;;;2.30;0.60;;;9.40;1.00;;;;;;22227966;26;20004;-81
2024/04/18 09:16:52;;;;;;;5.43;1.00;;;9.90;1.00;;;;;;22278877;26;20487;-79
2024/04/18 09:26:53;;;;;;;4.00;0.75;;;10.60;1.00;;;;;;22261147;26;19997;-80
2024/04/18 09:36:55;;;;;;;6.00;1.10;;;10.40;1.00;;;;;;22215847;26;20001;-80
2024/04/18 09:46:58;;;;;;;4.57;1.13;;;11.80;1.00;;;;;;22179760;26;19996;-78
2024/04/18 09:57:01;;;;;;;4.32;0.80;;;10.90;1.00;;;;;;22202951;26;19996;-83
2024/04/18 10:07:04;;;;;;;3.28;0.68;;;10.90;1.00;;;;;;22045735;26;20012;-79
2024/04/18 10:17:07;;;;;;;5.53;1.42;;;11.90;1.00;;;;;;22049405;26;20016;-79
2024/04/18 10:27:14;;;;;;;4.22;0.55;;;11.60;1.00;;;;;;22077150;26;19997;-78
2024/04/18 10:37:22;;;;;;;2.10;0.70;;;11.50;1.00;;;;;;22069061;26;20484;-78
2024/04/18 10:47:23;;;;;;;4.30;0.63;;;12.00;1.00;;;;;;22040939;26;20001;-77
2024/04/18 10:57:26;;;;;;;3.35;0.65;;;12.40;1.00;;;;;;22077916;26;20005;-75
2024/04/18 11:07:27;;;;;;;2.58;0.40;;;11.60;1.00;;;;;;22077079;26;20016;-76
2024/04/18 11:17:29;;;;;;;1.70;0.50;;;12.30;1.00;;;;;;22087299;26;20432;-76
2024/04/18 11:27:30;;;;;;;1.95;0.57;;;11.80;1.00;;;;;;22195862;26;20485;-75
2024/04/18 11:37:37;;;;;;;3.72;0.60;;;11.50;1.00;;;;;;22221471;26;20351;-75
2024/04/18 11:47:39;;;;;;;5.95;0.90;;;11.90;1.00;;;;;;22220351;26;20012;-76
2024/04/18 11:57:40;;;;;;;2.83;0.50;;;13.20;1.00;;;;;;22202853;26;19996;-73
2024/04/18 12:07:40;;;;;;;1.90;0.50;;;13.20;1.00;;;;;;22215836;26;20011;-73
2024/04/18 12:17:41;;;;;;;2.83;0.40;;;13.50;1.00;;;;;;22231663;26;19996;-74
2024/04/18 12:27:43;;;;;;;2.70;0.40;;;14.10;1.00;;;;;;22234380;26;20004;-74
2024/04/18 12:37:44;;;;;;;4.55;0.70;;;13.20;1.00;;;;;;22233314;26;21119;-74
2024/04/18 12:47:45;;;;;;;2.50;0.30;;;13.80;1.00;;;;;;22216094;26;20571;-74
2024/04/18 12:57:46;;;;;;;2.38;0.57;;;13.80;1.00;;;;;;22230445;26;20000;-74
2024/04/18 13:07:47;;;;;;;4.25;0.60;;;12.50;1.00;;;;;;22226588;26;20004;-75
2024/04/18 13:17:48;;;;;;;4.03;0.88;;;11.90;1.00;;;;;;22217676;26;20035;-76
2024/04/18 13:27:49;;;;;;;6.20;0.90;;;12.30;1.00;;;;;;22208207;26;20024;-76
2024/04/18 13:37:50;;;;;;;4.03;0.80;;;13.30;1.00;;;;;;22229811;26;20004;-76
2024/04/18 13:47:51;;;;;;;3.70;0.60;;;13.10;1.00;;;;;;22241987;26;20023;-75
2024/04/18 13:57:52;;;;;;;4.30;1.00;;;13.50;1.00;;;;;;22226688;26;20015;-75
2024/04/18 14:07:53;;;;;;;4.20;0.77;;;13.10;1.00;;;;;;22224722;26;20000;-75
2024/04/18 14:28:14;;;;;;;7.43;0.80;;;13.30;1.00;;;;;;22223790;26;20036;-75
2024/04/18 14:38:15;;;;;;;4.90;0.73;;;13.60;1.00;;;;;;22222529;26;20007;-75
2024/04/18 14:48:16;;;;;;;7.60;1.27;;;13.50;1.00;;;;;;22227494;26;20015;-75
2024/04/18 14:58:17;;;;;;;5.65;0.70;;;13.20;1.00;;;;;;22178669;26;19996;-75
2024/04/18 15:08:18;;;;;;;4.20;0.85;;;12.90;1.00;;;;;;22221193;26;20094;-75
2024/04/18 15:18:21;;;;;;;5.53;1.17;;;12.90;1.00;;;;;;22222207;26;20048;-75
2024/04/18 15:28:22;;;;;;;3.30;0.80;;;12.70;1.00;;;;;;22224444;26;19997;-74
2024/04/18 15:38:23;;;;;;;4.75;0.80;;;12.60;1.00;;;;;;22225265;26;19996;-74
2024/04/18 15:48:24;;;;;;;3.72;0.60;;;12.10;1.00;;;;;;22210203;26;20963;-76
2024/04/18 15:58:25;;;;;;;5.07;0.77;;;11.80;1.00;;;;;;22233151;26;20000;-75
2024/04/18 16:08:25;;;;;;;3.10;0.65;;;11.50;1.00;;;;;;22232350;26;20005;-76
2024/04/18 16:18:28;;;;;;;4.50;0.77;;;11.40;1.00;;;;;;22236003;26;20011;-76
2024/04/18 16:28:29;;;;;;;7.32;0.85;;;11.30;1.00;;;;;;22234662;26;20057;-75
2024/04/18 16:38:30;;;;;;;4.57;1.05;;;11.20;1.00;;;;;;22217389;26;19992;-77
2024/04/18 16:48:31;;;;;;;3.70;0.90;;;11.10;1.00;;;;;;22217258;26;20004;-77
2024/04/18 16:58:34;;;;;;;5.07;1.13;;;11.00;1.00;;;;;;22216790;26;19992;-76
2024/04/18 17:08:35;;;;;;;3.25;0.70;;;10.90;1.00;;;;;;22197338;26;20005;-76
2024/04/18 17:18:36;;;;;;;3.80;0.90;;;10.80;1.00;;;;;;22225833;26;20047;-76
2024/04/18 17:28:37;;;;;;;9.02;1.40;;;10.80;1.00;;;;;;22192563;26;20850;-77
2024/04/18 17:38:38;;;;;;;4.07;0.80;;;10.60;1.00;;;;;;22207592;26;20004;-78
2024/04/18 17:48:39;;;;;;;7.90;1.23;;;10.50;1.00;;;;;;22204013;26;20000;-77
2024/04/18 17:58:40;;;;;;;5.70;1.00;;;10.20;1.00;;;;;;22161952;26;20054;-78
2024/04/18 18:08:43;;;;;;;3.50;0.80;;;10.00;1.00;;;;;;22209377;26;20000;-77
2024/04/18 18:18:44;;;;;;;5.80;0.93;;;9.80;1.00;;;;;;22205947;26;20016;-77
2024/04/18 18:28:45;;;;;;;9.73;4.05;;;9.70;1.00;;;;;;22150676;26;20041;-77
2024/04/18 18:38:46;;;;;;;8.93;2.63;;;9.60;1.00;;;;;;22187832;26;20074;-78
2024/04/18 18:48:48;;;;;;;20.30;10.55;;;9.40;1.00;;;;;;22179037;26;20040;-77
2024/04/18 18:58:51;;;;;;;4.70;1.73;;;9.40;1.00;;;;;;22190430;26;19996;-79
2024/04/18 19:08:55;;;;;;;5.45;1.92;;;9.30;1.00;;;;;;22195075;26;20051;-78
2024/04/18 19:18:56;;;;;;;4.43;1.15;;;9.10;1.00;;;;;;22173293;26;20069;-78
2024/04/18 19:28:57;;;;;;;5.05;1.30;;;9.00;1.00;;;;;;22169663;26;20016;-79
2024/04/18 19:39:00;;;;;;;2.78;1.02;;;9.00;1.00;;;;;;22179208;26;20007;-78
2024/04/18 19:49:01;;;;;;;4.30;0.93;;;8.80;1.00;;;;;;22210591;26;20023;-78
2024/04/18 19:59:02;;;;;;;3.88;1.23;;;8.80;1.00;;;;;;22184989;26;20019;-78
2024/04/18 20:09:03;;;;;;;4.03;0.95;;;8.90;1.00;;;;;;22202638;26;20000;-78
2024/04/18 20:19:04;;;;;;;5.85;0.88;;;8.90;1.00;;;;;;22193877;26;20455;-78
2024/04/18 20:29:05;;;;;;;5.97;1.63;;;8.90;1.00;;;;;;22191889;26;20001;-78
2024/04/18 20:39:06;;;;;;;6.22;1.60;;;8.90;1.00;;;;;;22260733;26;20015;-78
2024/04/18 20:49:07;;;;;;;7.28;1.48;;;8.90;1.00;;;;;;22227267;26;20007;-78
2024/04/18 20:59:08;;;;;;;3.47;1.17;;;8.80;1.00;;;;;;22224207;26;20008;-78
2024/04/18 21:09:09;;;;;;;8.13;1.70;;;8.70;1.00;;;;;;22209490;26;20001;-78
2024/04/18 21:19:10;;;;;;;6.90;1.40;;;8.70;1.00;;;;;;22176652;26;20008;-77
2024/04/18 21:29:11;;;;;;;3.90;1.50;;;8.70;1.00;;;;;;22199297;26;20011;-77
2024/04/18 21:39:13;;;;;;;6.30;1.40;;;8.60;1.00;;;;;;22203655;26;20000;-76
2024/04/18 21:49:14;;;;;;;4.90;1.35;;;8.70;1.00;;;;;;22216681;26;20000;-77
2024/04/18 21:59:15;;;;;;;8.30;1.92;;;8.70;1.00;;;;;;22216893;26;20004;-76
2024/04/18 22:09:17;;;;;;;5.18;2.00;;;8.80;1.00;;;;;;22192614;26;20849;-76
2024/04/18 22:19:17;;;;;;;5.22;2.10;;;8.60;1.00;;;;;;22214843;26;20000;-76
2024/04/18 22:29:18;;;;;;;4.93;2.20;;;8.50;1.00;;;;;;22220456;26;20027;-75
2024/04/18 22:39:19;;;;;;;4.38;2.35;;;8.00;22.40;;;;;;22216012;26;20897;-75
2024/04/18 22:49:20;;;;;;;7.50;2.60;;;7.80;63.40;;;;;;22202830;26;20082;-75
2024/04/18 22:59:23;;;;;;;10.10;3.20;;;7.60;98.60;;;;;;22215020;26;20450;-76
2024/04/18 23:09:24;;;;;;;9.85;3.97;;;7.60;99.90;;;;;;22201862;26;20019;-76
2024/04/18 23:19:25;;;;;;;7.55;3.40;;;7.70;99.90;;;;;;22187399;26;20000;-76
2024/04/18 23:29:29;;;;;;;8.48;3.75;;;7.70;99.90;;;;;;22188930;26;20000;-76
2024/04/18 23:39:30;;;;;;;10.52;4.30;;;7.70;99.90;;;;;;22219949;26;19992;-75
2024/04/18 23:49:31;;;;;;;9.52;3.63;;;7.80;99.90;;;;;;22189875;26;20087;-76
2024/04/18 23:59:32;;;;;;;10.63;2.90;;;7.90;99.90;;;;;;22209022;26;20040;-75
